sensor_id;sensor_type;location;lat;lon;timestamp;P1;durP1;ratioP1;P2;durP2;ratioP2
84297;SDS011;74466;51.188;3.242;2023-12-29T00:00:41;11.63;;;2.00;;
84297;SDS011;74466;51.188;3.242;2023-12-29T00:03:07;12.98;;;2.00;;
84297;SDS011;74466;51.188;3.242;2023-12-29T00:05:33;19.60;;;2.60;;
84297;SDS011;74466;51.188;3.242;2023-12-29T00:07:58;21.65;;;2.38;;
84297;SDS011;74466;51.188;3.242;2023-12-29T00:10:24;17.83;;;2.00;;
84297;SDS011;74466;51.188;3.242;2023-12-29T00:12:50;13.23;;;2.00;;
84297;SDS011;74466;51.188;3.242;2023-12-29T00:15:18;13.07;;;2.33;;
84297;SDS011;74466;51.188;3.242;2023-12-29T00:17:46;17.55;;;2.25;;
84297;SDS011;74466;51.188;3.242;2023-12-29T00:20:12;14.63;;;2.10;;
84297;SDS011;74466;51.188;3.242;2023-12-29T00:22:37;14.65;;;2.08;;
84297;SDS011;74466;51.188;3.242;2023-12-29T00:25:03;17.55;;;2.38;;
84297;SDS011;74466;51.188;3.242;2023-12-29T00:27:30;15.80;;;2.38;;
84297;SDS011;74466;51.188;3.242;2023-12-29T00:29:56;14.82;;;2.30;;
84297;SDS011;74466;51.188;3.242;2023-12-29T00:32:22;16.40;;;2.45;;
84297;SDS011;74466;51.188;3.242;2023-12-29T00:34:48;14.27;;;2.25;;
84297;SDS011;74466;51.188;3.242;2023-12-29T00:37:13;19.83;;;2.25;;
84297;SDS011;74466;51.188;3.242;2023-12-29T00:39:39;16.60;;;2.17;;
84297;SDS011;74466;51.188;3.242;2023-12-29T00:42:05;12.68;;;2.35;;
84297;SDS011;74466;51.188;3.242;2023-12-29T00:44:31;10.48;;;1.90;;
84297;SDS011;74466;51.188;3.242;2023-12-29T00:46:57;13.52;;;1.98;;
84297;SDS011;74466;51.188;3.242;2023-12-29T00:49:24;13.93;;;2.70;;
84297;SDS011;74466;51.188;3.242;2023-12-29T00:51:50;17.20;;;1.90;;
84297;SDS011;74466;51.188;3.242;2023-12-29T00:54:15;16.98;;;1.73;;
84297;SDS011;74466;51.188;3.242;2023-12-29T00:56:41;12.05;;;2.25;;
84297;SDS011;74466;51.188;3.242;2023-12-29T00:59:07;14.43;;;2.17;;
84297;SDS011;74466;51.188;3.242;2023-12-29T01:01:33;14.25;;;2.00;;
84297;SDS011;74466;51.188;3.242;2023-12-29T01:04:00;15.43;;;2.13;;
84297;SDS011;74466;51.188;3.242;2023-12-29T01:06:26;14.82;;;2.00;;
84297;SDS011;74466;51.188;3.242;2023-12-29T01:08:52;12.48;;;2.05;;
84297;SDS011;74466;51.188;3.242;2023-12-29T01:11:18;8.68;;;1.48;;
84297;SDS011;74466;51.188;3.242;2023-12-29T01:13:44;11.73;;;1.90;;
84297;SDS011;74466;51.188;3.242;2023-12-29T01:16:09;12.40;;;1.60;;
84297;SDS011;74466;51.188;3.242;2023-12-29T01:18:35;8.63;;;1.55;;
84297;SDS011;74466;51.188;3.242;2023-12-29T01:21:01;9.27;;;1.33;;
84297;SDS011;74466;51.188;3.242;2023-12-29T01:23:27;13.85;;;1.70;;
84297;SDS011;74466;51.188;3.242;2023-12-29T01:25:53;13.60;;;1.80;;
84297;SDS011;74466;51.188;3.242;2023-12-29T01:28:19;13.57;;;1.92;;
84297;SDS011;74466;51.188;3.242;2023-12-29T01:30:44;10.43;;;1.73;;
84297;SDS011;74466;51.188;3.242;2023-12-29T01:33:10;14.93;;;2.10;;
84297;SDS011;74466;51.188;3.242;2023-12-29T01:35:37;12.57;;;1.88;;
84297;SDS011;74466;51.188;3.242;2023-12-29T01:38:03;11.82;;;1.70;;
84297;SDS011;74466;51.188;3.242;2023-12-29T01:40:29;13.70;;;1.90;;
84297;SDS011;74466;51.188;3.242;2023-12-29T01:42:55;11.57;;;1.67;;
84297;SDS011;74466;51.188;3.242;2023-12-29T01:45:21;10.95;;;1.60;;
84297;SDS011;74466;51.188;3.242;2023-12-29T01:47:49;12.35;;;1.63;;
84297;SDS011;74466;51.188;3.242;2023-12-29T01:50:19;9.48;;;1.48;;
84297;SDS011;74466;51.188;3.242;2023-12-29T01:52:47;13.55;;;1.48;;
84297;SDS011;74466;51.188;3.242;2023-12-29T01:55:15;14.80;;;1.67;;
84297;SDS011;74466;51.188;3.242;2023-12-29T01:57:46;13.70;;;1.58;;
84297;SDS011;74466;51.188;3.242;2023-12-29T02:00:13;14.38;;;1.88;;
84297;SDS011;74466;51.188;3.242;2023-12-29T02:02:41;14.93;;;1.80;;
84297;SDS011;74466;51.188;3.242;2023-12-29T02:05:07;16.83;;;2.28;;
84297;SDS011;74466;51.188;3.242;2023-12-29T02:07:34;15.48;;;1.85;;
84297;SDS011;74466;51.188;3.242;2023-12-29T02:10:00;13.15;;;1.50;;
84297;SDS011;74466;51.188;3.242;2023-12-29T02:12:26;16.65;;;1.83;;
84297;SDS011;74466;51.188;3.242;2023-12-29T02:14:52;16.80;;;1.60;;
84297;SDS011;74466;51.188;3.242;2023-12-29T02:17:22;16.83;;;1.83;;
84297;SDS011;74466;51.188;3.242;2023-12-29T02:20:11;14.07;;;1.73;;
84297;SDS011;74466;51.188;3.242;2023-12-29T02:22:37;17.35;;;1.95;;
84297;SDS011;74466;51.188;3.242;2023-12-29T02:25:04;17.58;;;2.17;;
84297;SDS011;74466;51.188;3.242;2023-12-29T02:32:35;21.08;;;1.83;;
84297;SDS011;74466;51.188;3.242;2023-12-29T02:35:04;18.77;;;2.38;;
84297;SDS011;74466;51.188;3.242;2023-12-29T02:37:33;12.55;;;1.60;;
84297;SDS011;74466;51.188;3.242;2023-12-29T02:40:01;15.65;;;1.70;;
84297;SDS011;74466;51.188;3.242;2023-12-29T02:42:27;16.50;;;1.77;;
84297;SDS011;74466;51.188;3.242;2023-12-29T02:44:53;18.13;;;2.08;;
84297;SDS011;74466;51.188;3.242;2023-12-29T02:47:19;16.42;;;1.52;;
84297;SDS011;74466;51.188;3.242;2023-12-29T02:49:46;18.85;;;2.08;;
84297;SDS011;74466;51.188;3.242;2023-12-29T02:52:12;19.48;;;1.98;;
84297;SDS011;74466;51.188;3.242;2023-12-29T02:54:38;17.77;;;2.13;;
84297;SDS011;74466;51.188;3.242;2023-12-29T02:57:03;18.23;;;1.65;;
84297;SDS011;74466;51.188;3.242;2023-12-29T02:59:29;19.10;;;1.80;;
84297;SDS011;74466;51.188;3.242;2023-12-29T03:01:55;16.35;;;1.90;;
84297;SDS011;74466;51.188;3.242;2023-12-29T03:04:20;13.90;;;1.95;;
84297;SDS011;74466;51.188;3.242;2023-12-29T03:06:46;16.23;;;1.73;;
84297;SDS011;74466;51.188;3.242;2023-12-29T03:09:12;18.52;;;1.88;;
84297;SDS011;74466;51.188;3.242;2023-12-29T03:11:38;16.20;;;2.28;;
84297;SDS011;74466;51.188;3.242;2023-12-29T03:14:04;19.27;;;2.13;;
84297;SDS011;74466;51.188;3.242;2023-12-29T03:16:29;19.23;;;1.75;;
84297;SDS011;74466;51.188;3.242;2023-12-29T03:18:55;16.70;;;2.10;;
84297;SDS011;74466;51.188;3.242;2023-12-29T03:21:21;21.27;;;2.10;;
84297;SDS011;74466;51.188;3.242;2023-12-29T03:23:47;17.08;;;2.65;;
84297;SDS011;74466;51.188;3.242;2023-12-29T03:26:12;17.60;;;1.80;;
84297;SDS011;74466;51.188;3.242;2023-12-29T03:28:38;24.23;;;2.33;;
84297;SDS011;74466;51.188;3.242;2023-12-29T03:31:04;14.93;;;1.67;;
84297;SDS011;74466;51.188;3.242;2023-12-29T03:33:30;17.90;;;2.15;;
84297;SDS011;74466;51.188;3.242;2023-12-29T03:35:56;17.23;;;1.80;;
84297;SDS011;74466;51.188;3.242;2023-12-29T03:38:21;16.48;;;2.40;;
84297;SDS011;74466;51.188;3.242;2023-12-29T03:40:47;15.55;;;1.98;;
84297;SDS011;74466;51.188;3.242;2023-12-29T03:43:13;19.05;;;1.85;;
84297;SDS011;74466;51.188;3.242;2023-12-29T03:45:38;18.17;;;1.67;;
84297;SDS011;74466;51.188;3.242;2023-12-29T03:48:04;17.20;;;1.92;;
84297;SDS011;74466;51.188;3.242;2023-12-29T03:50:31;19.83;;;2.22;;
84297;SDS011;74466;51.188;3.242;2023-12-29T03:52:56;18.92;;;1.90;;
84297;SDS011;74466;51.188;3.242;2023-12-29T03:55:22;22.35;;;2.10;;
84297;SDS011;74466;51.188;3.242;2023-12-29T03:57:48;14.70;;;1.75;;
84297;SDS011;74466;51.188;3.242;2023-12-29T04:00:14;17.33;;;1.88;;
84297;SDS011;74466;51.188;3.242;2023-12-29T04:02:40;23.10;;;2.03;;
84297;SDS011;74466;51.188;3.242;2023-12-29T04:05:06;14.63;;;1.75;;
84297;SDS011;74466;51.188;3.242;2023-12-29T04:07:33;18.38;;;1.90;;
84297;SDS011;74466;51.188;3.242;2023-12-29T04:09:59;18.50;;;1.83;;
84297;SDS011;74466;51.188;3.242;2023-12-29T04:12:25;15.25;;;2.50;;
84297;SDS011;74466;51.188;3.242;2023-12-29T04:14:50;15.07;;;2.10;;
84297;SDS011;74466;51.188;3.242;2023-12-29T04:17:16;14.13;;;1.70;;
84297;SDS011;74466;51.188;3.242;2023-12-29T04:19:42;16.63;;;2.15;;
84297;SDS011;74466;51.188;3.242;2023-12-29T04:22:07;19.33;;;1.85;;
84297;SDS011;74466;51.188;3.242;2023-12-29T04:24:33;18.80;;;2.08;;
84297;SDS011;74466;51.188;3.242;2023-12-29T04:26:59;16.15;;;2.15;;
84297;SDS011;74466;51.188;3.242;2023-12-29T04:29:26;17.33;;;1.65;;
84297;SDS011;74466;51.188;3.242;2023-12-29T04:31:51;15.57;;;1.65;;
84297;SDS011;74466;51.188;3.242;2023-12-29T04:34:17;14.75;;;1.50;;
84297;SDS011;74466;51.188;3.242;2023-12-29T04:36:43;17.73;;;1.88;;
84297;SDS011;74466;51.188;3.242;2023-12-29T04:39:08;14.60;;;1.70;;
84297;SDS011;74466;51.188;3.242;2023-12-29T04:41:35;14.10;;;1.90;;
84297;SDS011;74466;51.188;3.242;2023-12-29T04:44:01;7.65;;;1.40;;
84297;SDS011;74466;51.188;3.242;2023-12-29T04:46:27;16.98;;;1.67;;
84297;SDS011;74466;51.188;3.242;2023-12-29T04:48:53;12.80;;;1.75;;
84297;SDS011;74466;51.188;3.242;2023-12-29T04:51:19;11.25;;;1.63;;
84297;SDS011;74466;51.188;3.242;2023-12-29T04:53:45;14.60;;;1.50;;
84297;SDS011;74466;51.188;3.242;2023-12-29T04:56:11;14.90;;;1.85;;
84297;SDS011;74466;51.188;3.242;2023-12-29T04:58:37;15.05;;;1.80;;
84297;SDS011;74466;51.188;3.242;2023-12-29T05:01:03;11.13;;;1.83;;
84297;SDS011;74466;51.188;3.242;2023-12-29T05:03:29;13.63;;;1.60;;
84297;SDS011;74466;51.188;3.242;2023-12-29T05:05:55;14.15;;;1.90;;
84297;SDS011;74466;51.188;3.242;2023-12-29T05:08:21;13.95;;;1.50;;
84297;SDS011;74466;51.188;3.242;2023-12-29T05:10:47;13.90;;;1.63;;
84297;SDS011;74466;51.188;3.242;2023-12-29T05:13:13;14.82;;;1.67;;
84297;SDS011;74466;51.188;3.242;2023-12-29T05:15:39;10.57;;;1.42;;
84297;SDS011;74466;51.188;3.242;2023-12-29T05:18:05;9.90;;;1.23;;
84297;SDS011;74466;51.188;3.242;2023-12-29T05:20:30;16.55;;;1.63;;
84297;SDS011;74466;51.188;3.242;2023-12-29T05:22:56;13.73;;;1.60;;
84297;SDS011;74466;51.188;3.242;2023-12-29T05:25:22;8.95;;;1.40;;
84297;SDS011;74466;51.188;3.242;2023-12-29T05:27:49;12.40;;;1.65;;
84297;SDS011;74466;51.188;3.242;2023-12-29T05:30:15;14.70;;;1.48;;
84297;SDS011;74466;51.188;3.242;2023-12-29T05:32:41;6.68;;;1.02;;
84297;SDS011;74466;51.188;3.242;2023-12-29T05:35:06;9.05;;;1.35;;
84297;SDS011;74466;51.188;3.242;2023-12-29T05:37:32;8.00;;;1.20;;
84297;SDS011;74466;51.188;3.242;2023-12-29T05:39:58;8.05;;;1.10;;
84297;SDS011;74466;51.188;3.242;2023-12-29T05:42:24;9.30;;;1.30;;
84297;SDS011;74466;51.188;3.242;2023-12-29T05:44:49;12.15;;;1.50;;
84297;SDS011;74466;51.188;3.242;2023-12-29T05:47:17;8.45;;;1.10;;
84297;SDS011;74466;51.188;3.242;2023-12-29T05:49:43;7.10;;;1.40;;
84297;SDS011;74466;51.188;3.242;2023-12-29T05:52:09;10.85;;;1.30;;
84297;SDS011;74466;51.188;3.242;2023-12-29T05:54:35;6.60;;;1.10;;
84297;SDS011;74466;51.188;3.242;2023-12-29T05:57:01;5.50;;;1.15;;
84297;SDS011;74466;51.188;3.242;2023-12-29T05:59:26;6.65;;;1.38;;
84297;SDS011;74466;51.188;3.242;2023-12-29T06:01:53;7.78;;;1.60;;
84297;SDS011;74466;51.188;3.242;2023-12-29T06:04:18;8.38;;;1.58;;
84297;SDS011;74466;51.188;3.242;2023-12-29T06:06:44;7.60;;;1.50;;
84297;SDS011;74466;51.188;3.242;2023-12-29T06:09:11;8.02;;;1.55;;
84297;SDS011;74466;51.188;3.242;2023-12-29T06:11:36;6.85;;;1.70;;
84297;SDS011;74466;51.188;3.242;2023-12-29T06:14:03;8.10;;;1.70;;
84297;SDS011;74466;51.188;3.242;2023-12-29T06:16:28;7.43;;;1.60;;
84297;SDS011;74466;51.188;3.242;2023-12-29T06:18:57;10.05;;;1.92;;
84297;SDS011;74466;51.188;3.242;2023-12-29T06:21:23;7.28;;;1.90;;
84297;SDS011;74466;51.188;3.242;2023-12-29T06:23:49;6.22;;;1.80;;
84297;SDS011;74466;51.188;3.242;2023-12-29T06:26:18;8.13;;;1.75;;
84297;SDS011;74466;51.188;3.242;2023-12-29T06:28:45;8.27;;;1.88;;
84297;SDS011;74466;51.188;3.242;2023-12-29T06:31:11;8.80;;;2.05;;
84297;SDS011;74466;51.188;3.242;2023-12-29T06:33:40;6.80;;;2.10;;
84297;SDS011;74466;51.188;3.242;2023-12-29T06:36:07;9.18;;;2.40;;
84297;SDS011;74466;51.188;3.242;2023-12-29T06:38:33;11.73;;;2.30;;
84297;SDS011;74466;51.188;3.242;2023-12-29T06:41:02;8.13;;;2.22;;
84297;SDS011;74466;51.188;3.242;2023-12-29T06:43:29;6.75;;;1.73;;
84297;SDS011;74466;51.188;3.242;2023-12-29T06:45:55;4.55;;;1.70;;
84297;SDS011;74466;51.188;3.242;2023-12-29T06:48:21;7.28;;;1.77;;
84297;SDS011;74466;51.188;3.242;2023-12-29T06:50:47;6.90;;;2.13;;
84297;SDS011;74466;51.188;3.242;2023-12-29T06:53:13;9.15;;;1.80;;
84297;SDS011;74466;51.188;3.242;2023-12-29T06:55:38;10.25;;;1.80;;
84297;SDS011;74466;51.188;3.242;2023-12-29T06:58:04;6.20;;;1.80;;
84297;SDS011;74466;51.188;3.242;2023-12-29T07:00:31;8.05;;;1.98;;
84297;SDS011;74466;51.188;3.242;2023-12-29T07:02:56;9.45;;;1.65;;
84297;SDS011;74466;51.188;3.242;2023-12-29T07:05:22;9.38;;;2.03;;
84297;SDS011;74466;51.188;3.242;2023-12-29T07:07:48;3.92;;;1.40;;
84297;SDS011;74466;51.188;3.242;2023-12-29T07:10:14;9.00;;;1.80;;
84297;SDS011;74466;51.188;3.242;2023-12-29T07:12:40;7.13;;;1.70;;
84297;SDS011;74466;51.188;3.242;2023-12-29T07:15:06;7.25;;;1.63;;
84297;SDS011;74466;51.188;3.242;2023-12-29T07:17:32;7.03;;;1.60;;
84297;SDS011;74466;51.188;3.242;2023-12-29T07:19:58;6.38;;;1.50;;
84297;SDS011;74466;51.188;3.242;2023-12-29T07:22:23;8.80;;;1.60;;
84297;SDS011;74466;51.188;3.242;2023-12-29T07:24:49;5.38;;;1.33;;
84297;SDS011;74466;51.188;3.242;2023-12-29T07:27:15;6.57;;;1.30;;
84297;SDS011;74466;51.188;3.242;2023-12-29T07:29:40;4.07;;;1.00;;
84297;SDS011;74466;51.188;3.242;2023-12-29T07:32:06;6.63;;;1.15;;
84297;SDS011;74466;51.188;3.242;2023-12-29T07:34:32;6.72;;;0.95;;
84297;SDS011;74466;51.188;3.242;2023-12-29T07:36:58;3.53;;;0.90;;
84297;SDS011;74466;51.188;3.242;2023-12-29T07:39:24;7.07;;;1.30;;
84297;SDS011;74466;51.188;3.242;2023-12-29T07:41:50;4.82;;;0.70;;
84297;SDS011;74466;51.188;3.242;2023-12-29T07:44:16;8.10;;;1.13;;
84297;SDS011;74466;51.188;3.242;2023-12-29T07:46:42;3.03;;;0.65;;
84297;SDS011;74466;51.188;3.242;2023-12-29T07:49:12;6.25;;;0.90;;
84297;SDS011;74466;51.188;3.242;2023-12-29T07:51:41;6.05;;;0.70;;
84297;SDS011;74466;51.188;3.242;2023-12-29T07:54:08;4.70;;;0.55;;
84297;SDS011;74466;51.188;3.242;2023-12-29T07:56:34;3.10;;;0.50;;
84297;SDS011;74466;51.188;3.242;2023-12-29T07:59:01;3.90;;;0.77;;
84297;SDS011;74466;51.188;3.242;2023-12-29T08:01:28;3.45;;;0.65;;
84297;SDS011;74466;51.188;3.242;2023-12-29T08:03:54;4.15;;;0.63;;
84297;SDS011;74466;51.188;3.242;2023-12-29T08:06:20;3.55;;;0.60;;
84297;SDS011;74466;51.188;3.242;2023-12-29T08:08:46;5.10;;;0.63;;
84297;SDS011;74466;51.188;3.242;2023-12-29T08:11:15;4.97;;;0.82;;
84297;SDS011;74466;51.188;3.242;2023-12-29T08:13:42;4.43;;;0.70;;
84297;SDS011;74466;51.188;3.242;2023-12-29T08:16:09;1.88;;;0.47;;
84297;SDS011;74466;51.188;3.242;2023-12-29T08:18:35;5.35;;;0.50;;
84297;SDS011;74466;51.188;3.242;2023-12-29T08:21:01;3.17;;;0.50;;
84297;SDS011;74466;51.188;3.242;2023-12-29T08:23:27;4.13;;;0.70;;
84297;SDS011;74466;51.188;3.242;2023-12-29T08:25:53;5.18;;;0.55;;
84297;SDS011;74466;51.188;3.242;2023-12-29T08:28:21;4.18;;;0.65;;
84297;SDS011;74466;51.188;3.242;2023-12-29T08:30:46;3.25;;;0.57;;
84297;SDS011;74466;51.188;3.242;2023-12-29T08:33:12;2.92;;;0.60;;
84297;SDS011;74466;51.188;3.242;2023-12-29T08:35:41;5.28;;;0.90;;
84297;SDS011;74466;51.188;3.242;2023-12-29T08:38:07;3.33;;;0.60;;
84297;SDS011;74466;51.188;3.242;2023-12-29T08:40:33;3.50;;;0.68;;
84297;SDS011;74466;51.188;3.242;2023-12-29T08:43:00;3.28;;;0.80;;
84297;SDS011;74466;51.188;3.242;2023-12-29T08:45:27;4.70;;;0.50;;
84297;SDS011;74466;51.188;3.242;2023-12-29T08:47:52;4.05;;;0.70;;
84297;SDS011;74466;51.188;3.242;2023-12-29T08:50:19;5.80;;;0.70;;
84297;SDS011;74466;51.188;3.242;2023-12-29T08:52:45;4.40;;;0.60;;
84297;SDS011;74466;51.188;3.242;2023-12-29T08:55:10;7.53;;;0.90;;
84297;SDS011;74466;51.188;3.242;2023-12-29T08:57:36;4.10;;;0.80;;
84297;SDS011;74466;51.188;3.242;2023-12-29T09:00:02;6.15;;;0.70;;
84297;SDS011;74466;51.188;3.242;2023-12-29T09:02:28;6.38;;;0.70;;
84297;SDS011;74466;51.188;3.242;2023-12-29T09:04:54;6.88;;;0.60;;
84297;SDS011;74466;51.188;3.242;2023-12-29T09:07:19;8.63;;;0.82;;
84297;SDS011;74466;51.188;3.242;2023-12-29T09:09:46;8.30;;;0.77;;
84297;SDS011;74466;51.188;3.242;2023-12-29T09:12:11;7.40;;;0.70;;
84297;SDS011;74466;51.188;3.242;2023-12-29T09:14:37;7.82;;;0.70;;
84297;SDS011;74466;51.188;3.242;2023-12-29T09:17:03;11.35;;;1.40;;
84297;SDS011;74466;51.188;3.242;2023-12-29T09:19:30;15.13;;;1.67;;
84297;SDS011;74466;51.188;3.242;2023-12-29T09:21:55;12.38;;;1.20;;
84297;SDS011;74466;51.188;3.242;2023-12-29T09:24:21;12.63;;;1.10;;
84297;SDS011;74466;51.188;3.242;2023-12-29T09:26:47;10.40;;;1.40;;
84297;SDS011;74466;51.188;3.242;2023-12-29T09:29:13;12.18;;;1.40;;
84297;SDS011;74466;51.188;3.242;2023-12-29T09:31:38;17.98;;;1.40;;
84297;SDS011;74466;51.188;3.242;2023-12-29T09:34:04;9.68;;;1.38;;
84297;SDS011;74466;51.188;3.242;2023-12-29T09:36:30;12.73;;;1.50;;
84297;SDS011;74466;51.188;3.242;2023-12-29T09:38:55;9.18;;;1.08;;
84297;SDS011;74466;51.188;3.242;2023-12-29T09:41:22;12.48;;;1.10;;
84297;SDS011;74466;51.188;3.242;2023-12-29T09:43:49;12.60;;;1.20;;
84297;SDS011;74466;51.188;3.242;2023-12-29T09:46:16;10.43;;;1.10;;
84297;SDS011;74466;51.188;3.242;2023-12-29T09:48:44;10.98;;;1.00;;
84297;SDS011;74466;51.188;3.242;2023-12-29T09:51:11;7.90;;;0.90;;
84297;SDS011;74466;51.188;3.242;2023-12-29T09:53:38;9.27;;;1.10;;
84297;SDS011;74466;51.188;3.242;2023-12-29T09:56:07;5.72;;;1.23;;
84297;SDS011;74466;51.188;3.242;2023-12-29T09:58:33;9.25;;;1.23;;
84297;SDS011;74466;51.188;3.242;2023-12-29T10:01:03;9.00;;;1.00;;
84297;SDS011;74466;51.188;3.242;2023-12-29T10:03:30;10.48;;;1.00;;
84297;SDS011;74466;51.188;3.242;2023-12-29T10:05:56;7.47;;;0.80;;
84297;SDS011;74466;51.188;3.242;2023-12-29T10:08:26;9.43;;;1.13;;
84297;SDS011;74466;51.188;3.242;2023-12-29T10:10:55;7.47;;;1.00;;
84297;SDS011;74466;51.188;3.242;2023-12-29T10:13:25;7.35;;;1.00;;
84297;SDS011;74466;51.188;3.242;2023-12-29T10:21:28;7.68;;;1.05;;
84297;SDS011;74466;51.188;3.242;2023-12-29T10:24:03;12.05;;;1.70;;
84297;SDS011;74466;51.188;3.242;2023-12-29T10:26:36;8.43;;;1.27;;
84297;SDS011;74466;51.188;3.242;2023-12-29T10:29:02;10.88;;;1.60;;
84297;SDS011;74466;51.188;3.242;2023-12-29T10:31:28;9.45;;;1.40;;
84297;SDS011;74466;51.188;3.242;2023-12-29T10:34:16;13.45;;;1.70;;
84297;SDS011;74466;51.188;3.242;2023-12-29T10:36:49;14.43;;;1.77;;
84297;SDS011;74466;51.188;3.242;2023-12-29T10:39:15;18.00;;;1.83;;
84297;SDS011;74466;51.188;3.242;2023-12-29T10:41:41;12.32;;;1.80;;
84297;SDS011;74466;51.188;3.242;2023-12-29T10:44:07;15.00;;;2.22;;
84297;SDS011;74466;51.188;3.242;2023-12-29T10:46:33;20.30;;;2.25;;
84297;SDS011;74466;51.188;3.242;2023-12-29T10:49:12;14.95;;;2.38;;
84297;SDS011;74466;51.188;3.242;2023-12-29T10:51:39;18.55;;;2.22;;
84297;SDS011;74466;51.188;3.242;2023-12-29T10:54:05;21.52;;;2.30;;
84297;SDS011;74466;51.188;3.242;2023-12-29T10:56:31;14.40;;;2.00;;
84297;SDS011;74466;51.188;3.242;2023-12-29T10:59:01;19.73;;;2.35;;
84297;SDS011;74466;51.188;3.242;2023-12-29T11:01:29;19.55;;;2.15;;
84297;SDS011;74466;51.188;3.242;2023-12-29T11:03:59;21.65;;;2.35;;
84297;SDS011;74466;51.188;3.242;2023-12-29T11:06:27;16.05;;;2.38;;
84297;SDS011;74466;51.188;3.242;2023-12-29T11:08:54;20.77;;;2.55;;
84297;SDS011;74466;51.188;3.242;2023-12-29T11:11:21;18.08;;;2.55;;
84297;SDS011;74466;51.188;3.242;2023-12-29T11:13:48;16.77;;;2.13;;
84297;SDS011;74466;51.188;3.242;2023-12-29T11:16:14;21.30;;;2.22;;
84297;SDS011;74466;51.188;3.242;2023-12-29T11:18:46;19.65;;;2.30;;
84297;SDS011;74466;51.188;3.242;2023-12-29T11:21:14;19.55;;;2.45;;
84297;SDS011;74466;51.188;3.242;2023-12-29T11:23:41;16.63;;;2.15;;
84297;SDS011;74466;51.188;3.242;2023-12-29T11:26:07;18.75;;;2.08;;
84297;SDS011;74466;51.188;3.242;2023-12-29T11:28:33;14.95;;;2.00;;
84297;SDS011;74466;51.188;3.242;2023-12-29T11:30:59;12.90;;;1.60;;
84297;SDS011;74466;51.188;3.242;2023-12-29T11:33:30;15.25;;;2.00;;
84297;SDS011;74466;51.188;3.242;2023-12-29T11:36:12;11.75;;;1.48;;
84297;SDS011;74466;51.188;3.242;2023-12-29T11:41:38;22.37;;;1.97;;
84297;SDS011;74466;51.188;3.242;2023-12-29T11:44:35;10.43;;;1.40;;
84297;SDS011;74466;51.188;3.242;2023-12-29T11:47:01;7.85;;;1.42;;
84297;SDS011;74466;51.188;3.242;2023-12-29T11:49:27;10.43;;;1.40;;
84297;SDS011;74466;51.188;3.242;2023-12-29T11:52:32;9.02;;;1.30;;
84297;SDS011;74466;51.188;3.242;2023-12-29T11:55:09;13.18;;;1.85;;
84297;SDS011;74466;51.188;3.242;2023-12-29T11:57:36;9.38;;;1.40;;
84297;SDS011;74466;51.188;3.242;2023-12-29T12:00:04;7.60;;;1.50;;
84297;SDS011;74466;51.188;3.242;2023-12-29T12:02:31;9.13;;;1.13;;
84297;SDS011;74466;51.188;3.242;2023-12-29T12:04:57;9.40;;;1.25;;
84297;SDS011;74466;51.188;3.242;2023-12-29T12:09:52;7.68;;;1.15;;
84297;SDS011;74466;51.188;3.242;2023-12-29T12:12:58;7.28;;;1.10;;
84297;SDS011;74466;51.188;3.242;2023-12-29T12:17:53;8.90;;;0.98;;
84297;SDS011;74466;51.188;3.242;2023-12-29T12:20:20;10.90;;;1.10;;
84297;SDS011;74466;51.188;3.242;2023-12-29T12:22:46;6.43;;;0.85;;
84297;SDS011;74466;51.188;3.242;2023-12-29T12:25:21;6.28;;;0.90;;
84297;SDS011;74466;51.188;3.242;2023-12-29T12:27:49;9.77;;;0.95;;
84297;SDS011;74466;51.188;3.242;2023-12-29T12:30:18;4.07;;;0.68;;
84297;SDS011;74466;51.188;3.242;2023-12-29T12:32:44;6.00;;;0.80;;
84297;SDS011;74466;51.188;3.242;2023-12-29T12:35:13;4.63;;;0.77;;
84297;SDS011;74466;51.188;3.242;2023-12-29T12:37:41;8.50;;;1.10;;
84297;SDS011;74466;51.188;3.242;2023-12-29T12:40:07;5.32;;;0.80;;
84297;SDS011;74466;51.188;3.242;2023-12-29T12:42:34;4.63;;;0.85;;
84297;SDS011;74466;51.188;3.242;2023-12-29T12:45:06;7.40;;;0.70;;
84297;SDS011;74466;51.188;3.242;2023-12-29T12:47:42;7.43;;;0.75;;
84297;SDS011;74466;51.188;3.242;2023-12-29T12:50:11;8.82;;;0.93;;
84297;SDS011;74466;51.188;3.242;2023-12-29T12:52:38;5.75;;;0.80;;
84297;SDS011;74466;51.188;3.242;2023-12-29T12:55:05;6.80;;;0.60;;
84297;SDS011;74466;51.188;3.242;2023-12-29T12:57:32;8.65;;;1.15;;
84297;SDS011;74466;51.188;3.242;2023-12-29T12:59:59;4.55;;;0.93;;
84297;SDS011;74466;51.188;3.242;2023-12-29T13:02:26;6.50;;;1.00;;
84297;SDS011;74466;51.188;3.242;2023-12-29T13:04:54;7.18;;;0.98;;
84297;SDS011;74466;51.188;3.242;2023-12-29T13:07:20;7.78;;;1.10;;
84297;SDS011;74466;51.188;3.242;2023-12-29T13:09:47;9.02;;;1.17;;
84297;SDS011;74466;51.188;3.242;2023-12-29T13:12:15;9.98;;;1.20;;
84297;SDS011;74466;51.188;3.242;2023-12-29T13:14:42;8.73;;;1.13;;
84297;SDS011;74466;51.188;3.242;2023-12-29T13:17:09;10.13;;;1.75;;
84297;SDS011;74466;51.188;3.242;2023-12-29T13:19:35;12.40;;;1.10;;
84297;SDS011;74466;51.188;3.242;2023-12-29T13:22:05;8.48;;;0.98;;
84297;SDS011;74466;51.188;3.242;2023-12-29T13:24:32;8.43;;;1.65;;
84297;SDS011;74466;51.188;3.242;2023-12-29T13:27:02;8.13;;;1.20;;
84297;SDS011;74466;51.188;3.242;2023-12-29T13:29:31;7.93;;;1.20;;
84297;SDS011;74466;51.188;3.242;2023-12-29T13:31:59;7.88;;;1.20;;
84297;SDS011;74466;51.188;3.242;2023-12-29T13:42:57;11.15;;;1.38;;
84297;SDS011;74466;51.188;3.242;2023-12-29T13:45:27;9.68;;;1.15;;
84297;SDS011;74466;51.188;3.242;2023-12-29T13:47:53;11.07;;;1.00;;
84297;SDS011;74466;51.188;3.242;2023-12-29T13:50:21;6.13;;;0.82;;
84297;SDS011;74466;51.188;3.242;2023-12-29T13:52:47;7.30;;;1.50;;
84297;SDS011;74466;51.188;3.242;2023-12-29T13:55:24;10.65;;;1.05;;
84297;SDS011;74466;51.188;3.242;2023-12-29T13:57:50;9.07;;;1.00;;
84297;SDS011;74466;51.188;3.242;2023-12-29T14:00:17;7.55;;;1.00;;
84297;SDS011;74466;51.188;3.242;2023-12-29T14:05:22;9.90;;;1.35;;
84297;SDS011;74466;51.188;3.242;2023-12-29T14:07:52;9.20;;;1.10;;
84297;SDS011;74466;51.188;3.242;2023-12-29T14:10:28;9.38;;;0.93;;
84297;SDS011;74466;51.188;3.242;2023-12-29T14:15:37;9.77;;;1.40;;
84297;SDS011;74466;51.188;3.242;2023-12-29T14:18:07;10.70;;;1.40;;
84297;SDS011;74466;51.188;3.242;2023-12-29T14:20:47;14.45;;;1.40;;
84297;SDS011;74466;51.188;3.242;2023-12-29T14:23:12;11.23;;;1.17;;
84297;SDS011;74466;51.188;3.242;2023-12-29T14:25:39;9.95;;;1.30;;
84297;SDS011;74466;51.188;3.242;2023-12-29T14:28:13;10.65;;;1.00;;
84297;SDS011;74466;51.188;3.242;2023-12-29T14:30:41;8.52;;;1.27;;
84297;SDS011;74466;51.188;3.242;2023-12-29T14:33:07;9.48;;;1.20;;
84297;SDS011;74466;51.188;3.242;2023-12-29T14:35:33;10.93;;;1.35;;
84297;SDS011;74466;51.188;3.242;2023-12-29T14:38:00;10.02;;;1.25;;
84297;SDS011;74466;51.188;3.242;2023-12-29T14:40:26;15.48;;;1.30;;
84297;SDS011;74466;51.188;3.242;2023-12-29T14:42:52;13.02;;;1.42;;
84297;SDS011;74466;51.188;3.242;2023-12-29T14:45:18;10.05;;;1.10;;
84297;SDS011;74466;51.188;3.242;2023-12-29T14:47:44;11.10;;;1.55;;
84297;SDS011;74466;51.188;3.242;2023-12-29T14:50:16;9.93;;;1.13;;
84297;SDS011;74466;51.188;3.242;2023-12-29T14:52:42;9.80;;;1.73;;
84297;SDS011;74466;51.188;3.242;2023-12-29T14:55:07;13.40;;;2.45;;
84297;SDS011;74466;51.188;3.242;2023-12-29T14:57:33;15.38;;;2.60;;
84297;SDS011;74466;51.188;3.242;2023-12-29T14:59:59;15.10;;;3.28;;
84297;SDS011;74466;51.188;3.242;2023-12-29T15:02:24;15.73;;;2.10;;
84297;SDS011;74466;51.188;3.242;2023-12-29T15:04:50;19.27;;;2.88;;
84297;SDS011;74466;51.188;3.242;2023-12-29T15:07:16;10.73;;;1.95;;
84297;SDS011;74466;51.188;3.242;2023-12-29T15:09:43;16.23;;;2.10;;
84297;SDS011;74466;51.188;3.242;2023-12-29T15:12:09;17.48;;;2.85;;